Time;durP1;ratioP1;P1;durP2;ratioP2;P2;SDS_P1;SDS_P2;PMS_P1;PMS_P2;Temp;Humidity;BMP_temperature;BMP_pressure;BME280_temperature;BME280_humidity;BME280_pressure;Samples;Min_cycle;Max_cycle;Signal;HPM_P1;HPM_P2
2021/01/26 00:00:15;;;;;;;9.10;5.55;;;;;;;-0.18;100.00;99163.00;5030365;28;20064;-65
2021/01/26 00:03:00;;;;;;;8.25;4.82;;;;;;;-0.18;100.00;99156.13;5031260;28;20060;-66
2021/01/26 00:05:46;;;;;;;9.50;5.57;;;;;;;-0.19;100.00;99162.19;5031738;28;20404;-63
2021/01/26 00:08:32;;;;;;;8.25;5.43;;;;;;;-0.19;100.00;99157.03;5030641;28;21366;-64
2021/01/26 00:11:17;;;;;;;9.10;5.03;;;;;;;-0.18;100.00;99160.44;5029644;28;20155;-64
2021/01/26 00:14:03;;;;;;;7.18;4.05;;;;;;;-0.21;100.00;99169.09;5031777;28;20159;-66
2021/01/26 00:16:48;;;;;;;6.57;4.28;;;;;;;-0.20;100.00;99177.63;5019322;28;20519;-64
2021/01/26 00:19:33;;;;;;;8.63;5.03;;;;;;;-0.17;100.00;99174.94;5011609;28;20053;-64
2021/01/26 00:22:18;;;;;;;7.65;4.60;;;;;;;-0.17;100.00;99170.63;5011568;28;20052;-65
2021/01/26 00:25:05;;;;;;;9.18;5.03;;;;;;;-0.18;100.00;99171.53;5011729;28;20176;-65
2021/01/26 00:27:51;;;;;;;9.63;5.43;;;;;;;-0.18;100.00;99168.13;5011168;28;20416;-66
2021/01/26 00:30:38;;;;;;;8.55;5.25;;;;;;;-0.16;100.00;99174.84;5010696;28;20133;-64
2021/01/26 00:33:24;;;;;;;8.98;5.57;;;;;;;-0.19;100.00;99167.31;5011378;28;20057;-64
2021/01/26 00:36:10;;;;;;;10.00;4.93;;;;;;;-0.18;100.00;99161.25;5010858;28;20072;-65
2021/01/26 00:38:55;;;;;;;6.00;3.80;;;;;;;-0.18;100.00;99168.97;5010671;28;20061;-65
2021/01/26 00:41:40;;;;;;;8.25;4.72;;;;;;;-0.19;100.00;99166.44;5010633;28;20567;-62
2021/01/26 00:44:25;;;;;;;9.60;5.15;;;;;;;-0.19;100.00;99171.59;5021990;28;20053;-66
2021/01/26 00:47:10;;;;;;;6.43;4.32;;;;;;;-0.19;100.00;99172.44;5010851;28;20053;-66
2021/01/26 00:49:56;;;;;;;9.98;4.80;;;;;;;-0.18;100.00;99173.28;5010505;28;20056;-65
2021/01/26 00:52:41;;;;;;;8.35;5.13;;;;;;;-0.19;100.00;99171.59;5010559;28;20057;-65
2021/01/26 00:55:32;;;;;;;7.75;4.93;;;;;;;-0.21;100.00;99168.28;5009917;28;20045;-66
2021/01/26 00:58:19;;;;;;;8.18;4.97;;;;;;;-0.19;100.00;99177.59;5008021;28;20095;-64
2021/01/26 01:01:06;;;;;;;8.65;5.32;;;;;;;-0.19;100.00;99175.03;5007921;28;20053;-64
2021/01/26 01:03:53;;;;;;;8.10;5.30;;;;;;;-0.22;100.00;99175.16;4993228;28;20096;-64
2021/01/26 01:06:38;;;;;;;7.80;4.82;;;;;;;-0.23;100.00;99165.78;4995485;28;20053;-65
2021/01/26 01:09:23;;;;;;;6.90;4.30;;;;;;;-0.21;100.00;99166.53;4998425;28;20804;-64
2021/01/26 01:12:08;;;;;;;7.25;4.30;;;;;;;-0.19;100.00;99162.19;5001532;28;20053;-66
2021/01/26 01:14:53;;;;;;;8.40;4.70;;;;;;;-0.19;100.00;99161.31;5004438;28;20052;-65
2021/01/26 01:17:38;;;;;;;8.10;4.88;;;;;;;-0.18;100.00;99165.56;5026099;28;20100;-66
2021/01/26 01:20:26;;;;;;;8.40;5.07;;;;;;;-0.18;100.00;99157.88;5018035;28;20089;-63
2021/01/26 01:23:11;;;;;;;8.60;5.20;;;;;;;-0.18;100.00;99171.53;5006881;28;20598;-65
2021/01/26 01:26:01;;;;;;;7.22;4.40;;;;;;;-0.20;100.00;99173.31;5009122;28;20200;-66
2021/01/26 01:28:46;;;;;;;7.65;5.00;;;;;;;-0.20;100.00;99177.63;5009500;28;20072;-63
2021/01/26 01:31:32;;;;;;;7.75;4.60;;;;;;;-0.19;100.00;99176.72;5009841;28;20067;-64
2021/01/26 01:34:17;;;;;;;7.35;4.38;;;;;;;-0.19;100.00;99175.03;5010018;28;20052;-65
2021/01/26 01:37:03;;;;;;;6.78;4.45;;;;;;;-0.18;100.00;99174.09;5010795;28;20049;-63
2021/01/26 01:39:48;;;;;;;8.10;4.90;;;;;;;-0.18;100.00;99171.53;5009969;28;20151;-65
2021/01/26 01:42:33;;;;;;;8.13;4.93;;;;;;;-0.19;100.00;99177.59;5010252;28;20053;-64
2021/01/26 01:45:20;;;;;;;6.93;4.80;;;;;;;-0.19;100.00;99182.72;5007575;28;20192;-65
2021/01/26 01:48:13;;;;;;;11.02;5.95;;;;;;;-0.19;100.00;99175.03;5007448;28;20120;-65
2021/01/26 01:51:02;;;;;;;9.25;5.55;;;;;;;-0.21;100.00;99181.13;5009507;28;20057;-65
2021/01/26 01:53:56;;;;;;;8.52;5.65;;;;;;;-0.25;100.00;99180.41;5010506;28;20555;-63
2021/01/26 01:56:54;;;;;;;9.73;5.15;;;;;;;-0.22;100.00;99188.00;5010521;28;20155;-65
2021/01/26 01:59:46;;;;;;;8.02;5.15;;;;;;;-0.23;100.00;99175.22;5013908;28;20069;-64
2021/01/26 02:02:31;;;;;;;9.05;5.20;;;;;;;-0.23;100.00;99178.63;5014097;28;20143;-65
2021/01/26 02:05:17;;;;;;;9.45;5.65;;;;;;;-0.22;100.00;99184.59;5014277;28;20092;-66
2021/01/26 02:08:09;;;;;;;8.65;5.47;;;;;;;-0.22;100.00;99187.16;5011213;28;20065;-64
2021/01/26 02:10:54;;;;;;;10.07;5.80;;;;;;;-0.21;100.00;99181.13;5011224;28;20519;-64
2021/01/26 02:13:39;;;;;;;8.98;5.65;;;;;;;-0.21;100.00;99173.41;5013189;28;20411;-63
2021/01/26 02:16:27;;;;;;;9.40;5.75;;;;;;;-0.22;100.00;99175.16;5022812;28;20048;-63
2021/01/26 02:19:54;;;;;;;9.55;5.95;;;;;;;-0.20;100.00;99181.03;5033147;28;20061;-64
2021/01/26 02:23:17;;;;;;;9.43;5.65;;;;;;;-0.19;100.00;99174.16;5033300;28;20063;-64
2021/01/26 02:26:21;;;;;;;7.70;4.65;;;;;;;-0.21;100.00;99181.94;5033528;28;20184;-66
2021/01/26 02:29:27;;;;;;;9.10;5.07;;;;;;;-0.19;100.00;99189.56;5033195;28;20049;-62
2021/01/26 02:33:06;;;;;;;7.57;4.93;;;;;;;-0.18;100.00;99191.25;5032074;28;20210;-65
2021/01/26 02:36:12;;;;;;;8.57;5.35;;;;;;;-0.20;100.00;99183.59;5012249;28;20139;-66
2021/01/26 02:39:25;;;;;;;7.35;5.03;;;;;;;-0.21;100.00;99186.25;5033389;28;20422;-66
2021/01/26 02:43:08;;;;;;;9.13;5.90;;;;;;;-0.19;100.00;99190.44;5033184;28;20060;-65
2021/01/26 02:46:08;;;;;;;8.18;5.72;;;;;;;-0.19;100.00;99181.88;4991222;28;20054;-62
2021/01/26 02:49:02;;;;;;;9.80;5.72;;;;;;;-0.19;100.00;99187.88;4991085;28;20193;-63
2021/01/26 02:52:02;;;;;;;7.80;4.95;;;;;;;-0.21;100.00;99176.81;5032581;28;20063;-66
2021/01/26 02:55:03;;;;;;;8.55;5.03;;;;;;;-0.17;100.00;99185.22;5033321;28;20416;-66
2021/01/26 02:58:03;;;;;;;8.80;5.43;;;;;;;-0.19;100.00;99180.16;5033234;28;20068;-65
2021/01/26 03:00:54;;;;;;;8.73;4.63;;;;;;;-0.17;100.00;99191.19;5032814;28;20060;-65
2021/01/26 03:03:49;;;;;;;8.45;5.38;;;;;;;-0.15;100.00;99193.69;5030431;28;20188;-63
2021/01/26 03:06:37;;;;;;;8.65;5.22;;;;;;;-0.15;100.00;99186.78;5030789;28;20056;-64
2021/01/26 03:09:39;;;;;;;9.18;5.63;;;;;;;-0.13;100.00;99192.72;5029856;28;20060;-63
2021/01/26 03:12:33;;;;;;;9.45;5.63;;;;;;;-0.13;100.00;99194.47;5032520;28;20060;-62
2021/01/26 03:15:23;;;;;;;11.48;6.03;;;;;;;-0.14;100.00;99192.75;5032320;28;20059;-63
2021/01/26 03:18:13;;;;;;;8.82;5.72;;;;;;;-0.14;100.00;99197.91;5012535;28;20516;-61
2021/01/26 03:21:01;;;;;;;10.00;5.82;;;;;;;-0.13;100.00;99197.03;5010234;28;20065;-65
2021/01/26 03:24:01;;;;;;;9.32;6.75;;;;;;;-0.13;100.00;99207.31;5008244;28;20060;-65
2021/01/26 03:26:47;;;;;;;8.98;5.13;;;;;;;-0.13;100.00;99212.44;5012723;28;20507;-64
2021/01/26 03:29:36;;;;;;;11.20;6.57;;;;;;;-0.12;100.00;99209.78;5013014;28;20661;-63
2021/01/26 03:32:40;;;;;;;9.75;5.97;;;;;;;-0.13;100.00;99212.44;5013690;28;20135;-65
2021/01/26 03:35:26;;;;;;;9.63;6.22;;;;;;;-0.14;100.00;99215.88;5011244;28;20065;-65
2021/01/26 03:38:21;;;;;;;10.48;6.25;;;;;;;-0.16;100.00;99204.88;5010981;28;20065;-64
2021/01/26 03:41:07;;;;;;;12.25;7.43;;;;;;;-0.16;100.00;99210.84;5012599;28;20568;-65
2021/01/26 03:43:52;;;;;;;9.63;5.88;;;;;;;-0.16;100.00;99213.41;5014032;28;20053;-65
2021/01/26 03:46:40;;;;;;;9.77;6.05;;;;;;;-0.15;100.00;99215.06;5013640;28;20057;-63
2021/01/26 03:49:59;;;;;;;11.52;6.97;;;;;;;-0.16;100.00;99218.53;5013018;28;20108;-62
2021/01/26 03:53:03;;;;;;;10.38;6.18;;;;;;;-0.14;100.00;99221.03;5013742;28;20708;-65
2021/01/26 03:55:48;;;;;;;13.02;6.57;;;;;;;-0.18;100.00;99225.50;5013717;28;20081;-66
2021/01/26 03:58:39;;;;;;;11.90;7.13;;;;;;;-0.16;100.00;99228.00;5013404;28;20053;-65
2021/01/26 04:01:45;;;;;;;11.50;6.93;;;;;;;-0.15;100.00;99224.50;5013264;28;20061;-64
2021/01/26 04:04:43;;;;;;;11.48;7.32;;;;;;;-0.15;100.00;99233.03;5013307;28;20080;-62
2021/01/26 04:07:35;;;;;;;10.98;6.88;;;;;;;-0.14;100.00;99236.44;5012746;28;20507;-65
2021/01/26 04:10:24;;;;;;;12.40;7.13;;;;;;;-0.17;100.00;99234.03;5013665;28;20056;-64
2021/01/26 04:13:13;;;;;;;10.20;6.40;;;;;;;-0.17;100.00;99237.44;5012580;28;20440;-62
2021/01/26 04:16:00;;;;;;;10.20;6.05;;;;;;;-0.17;100.00;99232.28;5019066;28;20127;-63
2021/01/26 04:18:49;;;;;;;11.23;6.60;;;;;;;-0.17;100.00;99234.88;5013823;28;20057;-63
2021/01/26 04:21:38;;;;;;;10.77;6.55;;;;;;;-0.17;100.00;99229.72;5003414;28;20216;-64
2021/01/26 04:24:30;;;;;;;11.05;6.80;;;;;;;-0.18;100.00;99228.06;5009485;28;20061;-65
2021/01/26 04:27:20;;;;;;;9.52;6.00;;;;;;;-0.16;100.00;99233.13;5003711;28;20053;-66
2021/01/26 04:30:06;;;;;;;11.02;6.47;;;;;;;-0.17;100.00;99234.03;5009230;28;20073;-64
2021/01/26 04:33:05;;;;;;;10.32;6.43;;;;;;;-0.17;100.00;99228.91;5004989;28;20112;-65
2021/01/26 04:35:51;;;;;;;11.85;6.15;;;;;;;-0.17;100.00;99228.91;5009720;28;20104;-64
2021/01/26 04:38:36;;;;;;;11.57;7.13;;;;;;;-0.18;100.00;99233.19;5005990;28;20073;-65
2021/01/26 04:41:44;;;;;;;10.15;6.95;;;;;;;-0.19;100.00;99228.13;5010673;28;20145;-64
2021/01/26 04:44:51;;;;;;;10.98;6.88;;;;;;;-0.22;100.00;99228.28;5009804;28;20136;-66
2021/01/26 04:47:55;;;;;;;12.90;6.85;;;;;;;-0.25;100.00;99234.34;5010655;28;20053;-64
2021/01/26 04:50:53;;;;;;;12.00;7.10;;;;;;;-0.22;100.00;99233.41;5011968;28;20053;-65
2021/01/26 04:54:02;;;;;;;13.13;7.15;;;;;;;-0.21;100.00;99232.50;5012149;28;20516;-63
2021/01/26 04:57:19;;;;;;;13.55;7.32;;;;;;;-0.23;100.00;99232.56;5012401;28;20200;-65
2021/01/26 05:00:34;;;;;;;10.75;6.70;;;;;;;-0.23;100.00;99232.56;5012452;28;20073;-64
2021/01/26 05:03:41;;;;;;;11.52;6.72;;;;;;;-0.22;100.00;99234.22;4999694;28;20072;-65
2021/01/26 05:06:34;;;;;;;13.63;7.72;;;;;;;-0.21;100.00;99225.63;5012389;28;20056;-64
2021/01/26 05:09:25;;;;;;;13.45;7.40;;;;;;;-0.23;100.00;99227.44;5011863;28;20061;-64
2021/01/26 05:12:13;;;;;;;13.38;7.80;;;;;;;-0.25;100.00;99226.66;5011864;28;20100;-63
2021/01/26 05:15:00;;;;;;;11.27;7.53;;;;;;;-0.22;100.00;99225.69;5012396;28;20048;-64
2021/01/26 05:18:02;;;;;;;12.82;7.53;;;;;;;-0.23;100.00;99227.44;5012206;28;20516;-64
2021/01/26 05:20:54;;;;;;;12.98;6.93;;;;;;;-0.26;100.00;99222.41;5012101;28;20099;-63
2021/01/26 05:23:44;;;;;;;11.23;6.65;;;;;;;-0.23;100.00;99218.91;5010460;28;20409;-65
2021/01/26 05:26:29;;;;;;;11.30;6.85;;;;;;;-0.28;100.00;99219.09;4997056;28;20065;-65
2021/01/26 05:29:15;;;;;;;11.52;6.85;;;;;;;-0.26;100.00;99223.25;4988396;28;20131;-63
2021/01/26 05:32:04;;;;;;;11.88;7.35;;;;;;;-0.27;100.00;99220.75;4976846;28;20076;-65
2021/01/26 05:34:53;;;;;;;10.40;6.18;;;;;;;-0.26;100.00;99225.81;4969703;28;20076;-63
2021/01/26 05:37:37;;;;;;;13.05;6.55;;;;;;;-0.24;100.00;99232.63;4984348;28;20053;-63
2021/01/26 05:40:24;;;;;;;11.48;6.20;;;;;;;-0.26;100.00;99230.97;4998314;28;20209;-63
2021/01/26 05:43:15;;;;;;;10.95;6.40;;;;;;;-0.25;100.00;99229.22;4994849;28;20053;-63
2021/01/26 05:46:06;;;;;;;13.57;6.72;;;;;;;-0.25;100.00;99234.34;4992926;28;20081;-65
2021/01/26 05:48:51;;;;;;;10.63;6.97;;;;;;;-0.26;100.00;99230.97;4996543;28;20727;-63
2021/01/26 05:51:39;;;;;;;12.55;7.75;;;;;;;-0.25;100.00;99236.94;4996546;28;20143;-64
2021/01/26 05:54:24;;;;;;;12.73;6.93;;;;;;;-0.26;100.00;99233.53;4994010;28;20049;-65
2021/01/26 05:57:10;;;;;;;9.48;5.70;;;;;;;-0.25;100.00;99236.94;4992290;28;20053;-64
2021/01/26 06:00:28;;;;;;;11.85;7.63;;;;;;;-0.27;100.00;99234.44;4988826;28;20799;-64
2021/01/26 06:03:21;;;;;;;13.30;7.68;;;;;;;-0.27;100.00;99242.16;5003331;28;20754;-64
2021/01/26 06:06:10;;;;;;;14.52;7.50;;;;;;;-0.27;100.00;99238.75;5004818;28;20617;-64
2021/01/26 06:08:57;;;;;;;10.30;6.55;;;;;;;-0.29;100.00;99240.53;5002785;28;20387;-64
2021/01/26 06:11:42;;;;;;;14.85;7.95;;;;;;;-0.28;100.00;99237.91;4995457;28;20148;-64
2021/01/26 06:14:27;;;;;;;12.98;7.47;;;;;;;-0.27;100.00;99244.72;4990318;28;20053;-63
2021/01/26 06:17:23;;;;;;;12.70;7.38;;;;;;;-0.26;100.00;99250.69;4999002;28;20060;-63
2021/01/26 06:20:22;;;;;;;10.88;6.95;;;;;;;-0.27;100.00;99249.84;4998343;28;20681;-63
2021/01/26 06:23:14;;;;;;;13.18;7.47;;;;;;;-0.28;100.00;99252.50;4999852;28;20874;-64
2021/01/26 06:26:07;;;;;;;12.80;7.25;;;;;;;-0.28;100.00;99263.59;5003775;28;20408;-64
2021/01/26 06:29:16;;;;;;;12.05;6.40;;;;;;;-0.28;100.00;99265.34;5025954;28;20060;-64
2021/01/26 06:32:30;;;;;;;13.07;7.95;;;;;;;-0.27;100.00;99267.84;5006981;28;63824;-65
2021/01/26 06:35:33;;;;;;;15.70;7.45;;;;;;;-0.29;100.00;99272.19;4959495;28;20409;-64
2021/01/26 06:38:37;;;;;;;11.10;6.25;;;;;;;-0.27;100.00;99265.25;5005102;28;20053;-63
2021/01/26 06:41:56;;;;;;;11.30;6.72;;;;;;;-0.26;100.00;99266.94;5005583;28;20044;-64
2021/01/26 06:45:19;;;;;;;11.50;6.93;;;;;;;-0.26;100.00;99263.53;5009099;28;20107;-64
2021/01/26 06:48:45;;;;;;;11.60;7.07;;;;;;;-0.26;100.00;99258.38;4986748;28;20056;-63
2021/01/26 06:51:45;;;;;;;13.30;6.65;;;;;;;-0.23;100.00;99262.56;5009950;28;20188;-64
2021/01/26 06:54:36;;;;;;;11.90;6.72;;;;;;;-0.24;100.00;99268.59;5010422;28;20065;-63
2021/01/26 06:57:48;;;;;;;12.27;7.10;;;;;;;-0.24;100.00;99272.00;5010626;28;20165;-64
2021/01/26 07:00:54;;;;;;;9.65;6.03;;;;;;;-0.23;100.00;99267.72;5010234;28;20068;-65
2021/01/26 07:04:00;;;;;;;11.80;7.32;;;;;;;-0.21;100.00;99269.28;5009345;28;20064;-64
2021/01/26 07:06:55;;;;;;;11.05;6.40;;;;;;;-0.22;100.00;99282.22;5010216;28;20056;-65
2021/01/26 07:09:43;;;;;;;13.35;7.13;;;;;;;-0.21;100.00;99287.28;5009352;28;20080;-64
2021/01/26 07:12:35;;;;;;;10.48;6.35;;;;;;;-0.19;100.00;99290.63;5008975;28;20163;-64
2021/01/26 07:15:47;;;;;;;13.40;8.00;;;;;;;-0.18;100.00;99289.72;5009626;28;20103;-64
2021/01/26 07:18:38;;;;;;;13.10;7.82;;;;;;;-0.19;100.00;99289.78;5009849;28;20057;-64
2021/01/26 07:22:10;;;;;;;10.80;6.22;;;;;;;-0.19;100.00;99287.22;5006513;28;20053;-65
2021/01/26 07:25:05;;;;;;;10.85;6.70;;;;;;;-0.18;100.00;99288.91;4984300;28;20057;-63
2021/01/26 07:28:13;;;;;;;11.18;6.60;;;;;;;-0.15;100.00;99293.88;4987256;28;20512;-65
2021/01/26 07:31:04;;;;;;;14.75;8.70;;;;;;;-0.14;100.00;99293.84;5009129;28;20056;-64
2021/01/26 07:33:54;;;;;;;12.43;7.70;;;;;;;-0.15;100.00;99299.03;5008744;28;20057;-65
2021/01/26 07:36:48;;;;;;;12.80;7.57;;;;;;;-0.13;100.00;99302.38;5007512;28;20696;-65
2021/01/26 07:39:43;;;;;;;9.20;6.17;;;;;;;-0.13;100.00;99302.38;5006370;28;20052;-64
2021/01/26 07:42:37;;;;;;;11.45;6.95;;;;;;;-0.12;100.00;99312.59;5005168;28;20188;-64
2021/01/26 07:45:30;;;;;;;12.27;7.68;;;;;;;-0.12;100.00;99302.31;5006107;28;20061;-65
2021/01/26 07:48:32;;;;;;;14.88;8.10;;;;;;;-0.09;100.00;99299.59;5004427;28;20061;-65
2021/01/26 07:51:21;;;;;;;10.15;5.47;;;;;;;-0.09;100.00;99303.91;5006248;28;20080;-64
2021/01/26 07:54:16;;;;;;;11.07;7.30;;;;;;;-0.06;100.00;99299.44;5006107;28;20496;-64
2021/01/26 07:57:04;;;;;;;10.07;5.88;;;;;;;-0.06;100.00;99308.91;5005167;28;20568;-66
2021/01/26 07:59:54;;;;;;;9.98;6.05;;;;;;;-0.05;100.00;99308.84;5005363;28;20700;-65
2021/01/26 08:02:49;;;;;;;14.13;8.00;;;;;;;-0.04;100.00;99310.53;5005097;28;20052;-63
2021/01/26 08:05:37;;;;;;;;;;;;;;;-0.08;100.00;99301.28;5006831;28;20899;-65
2021/01/26 08:08:35;;;;;;;12.98;7.82;;;;;;;-0.06;100.00;99312.31;5006878;28;19928;-62
2021/01/26 08:11:24;;;;;;;13.63;7.72;;;;;;;-0.06;100.00;99306.34;5006181;28;20085;-64
2021/01/26 08:14:09;;;;;;;9.35;5.53;;;;;;;-0.04;100.00;99305.38;5006459;28;20065;-64
2021/01/26 08:16:57;;;;;;;10.45;6.30;;;;;;;-0.03;100.00;99313.91;5006318;28;20116;-64
2021/01/26 08:19:47;;;;;;;13.00;7.97;;;;;;;0.01;100.00;99309.50;5006112;28;20075;-64
2021/01/26 08:22:42;;;;;;;12.75;7.47;;;;;;;0.02;100.00;99300.88;5004544;28;20088;-64
2021/01/26 08:25:29;;;;;;;11.25;6.95;;;;;;;0.06;100.00;99305.81;5003670;28;20045;-65
2021/01/26 08:28:39;;;;;;;10.32;6.70;;;;;;;0.10;100.00;99306.50;5005435;28;20053;-64
2021/01/26 08:31:38;;;;;;;10.40;6.00;;;;;;;0.09;100.00;99310.78;5006126;28;20056;-67
2021/01/26 08:34:23;;;;;;;9.98;5.93;;;;;;;0.04;100.00;99322.19;5006545;28;20065;-64
2021/01/26 08:37:08;;;;;;;13.25;7.47;;;;;;;0.06;100.00;99320.41;5007007;28;20643;-65
2021/01/26 08:39:54;;;;;;;10.52;6.40;;;;;;;0.07;100.00;99328.03;5006975;28;20076;-65
2021/01/26 08:42:42;;;;;;;14.20;8.55;;;;;;;0.07;100.00;99328.03;5006849;28;20140;-64
2021/01/26 08:45:27;;;;;;;11.63;7.00;;;;;;;0.08;100.00;99329.69;5005227;28;20560;-64
2021/01/26 08:48:24;;;;;;;15.75;8.35;;;;;;;0.10;100.00;99324.50;5006021;28;20049;-65
2021/01/26 08:51:12;;;;;;;12.60;7.43;;;;;;;0.09;100.00;99323.66;5005713;28;20057;-64
2021/01/26 08:53:57;;;;;;;16.80;9.60;;;;;;;0.09;100.00;99322.81;5006555;28;20076;-64
2021/01/26 08:56:43;;;;;;;16.90;9.35;;;;;;;0.15;100.00;99315.69;5007055;28;20053;-65
2021/01/26 08:59:31;;;;;;;14.40;8.90;;;;;;;0.16;100.00;99306.22;5007113;28;20061;-64
2021/01/26 09:02:35;;;;;;;16.15;9.40;;;;;;;0.20;100.00;99311.16;5006635;28;20044;-65
2021/01/26 09:05:47;;;;;;;14.77;8.20;;;;;;;0.18;100.00;99322.41;5008203;28;20057;-66
2021/01/26 09:08:41;;;;;;;13.45;7.90;;;;;;;0.22;100.00;99323.94;4992320;28;20065;-65
2021/01/26 09:11:52;;;;;;;15.18;8.88;;;;;;;0.22;100.00;99329.91;5007394;28;20191;-66
2021/01/26 09:14:46;;;;;;;10.10;6.65;;;;;;;0.23;99.75;99323.03;5006785;28;20060;-65
2021/01/26 09:17:35;;;;;;;13.50;8.13;;;;;;;0.25;100.00;99323.81;5007431;28;20056;-64
2021/01/26 09:20:24;;;;;;;14.32;8.07;;;;;;;0.22;100.00;99326.53;5007075;28;20531;-65
2021/01/26 09:23:11;;;;;;;15.25;8.75;;;;;;;0.24;100.00;99324.72;5007072;28;20191;-65
2021/01/26 09:25:56;;;;;;;13.52;8.55;;;;;;;0.27;99.44;99327.16;5009133;28;20072;-65
2021/01/26 09:28:43;;;;;;;12.55;7.75;;;;;;;0.28;100.00;99328.81;5008534;28;20068;-65
2021/01/26 09:31:30;;;;;;;12.68;7.88;;;;;;;0.31;99.34;99330.41;5008408;28;20073;-65
2021/01/26 09:34:23;;;;;;;16.88;8.90;;;;;;;0.36;100.00;99321.59;5008134;28;20136;-66
2021/01/26 09:37:16;;;;;;;12.82;7.82;;;;;;;0.33;100.00;99329.44;5008944;28;20061;-66
2021/01/26 09:40:11;;;;;;;18.13;9.95;;;;;;;0.34;99.62;99325.16;5008631;28;20706;-66
2021/01/26 09:43:13;;;;;;;15.80;8.88;;;;;;;0.37;100.00;99325.81;5008966;28;20053;-65
2021/01/26 09:46:06;;;;;;;11.05;7.10;;;;;;;0.40;100.00;99322.28;5009070;28;20056;-64
2021/01/26 09:48:57;;;;;;;39.42;19.60;;;;;;;0.36;99.32;99321.59;5008020;28;20400;-63
2021/01/26 09:52:15;;;;;;;24.23;12.10;;;;;;;0.42;99.59;99320.47;5008791;28;20165;-65
2021/01/26 09:55:13;;;;;;;17.77;8.95;;;;;;;0.44;99.72;99323.81;5008457;28;20131;-63
2021/01/26 09:57:59;;;;;;;15.70;9.02;;;;;;;0.41;100.00;99319.66;5009223;28;20053;-64
2021/01/26 10:00:44;;;;;;;13.48;7.97;;;;;;;0.46;99.85;99330.56;5008167;28;20056;-64
2021/01/26 10:03:30;;;;;;;13.25;7.40;;;;;;;0.49;99.70;99317.56;5007934;28;20523;-65
2021/01/26 10:06:18;;;;;;;12.38;7.72;;;;;;;0.55;99.31;99319.00;5007319;28;20160;-66
2021/01/26 10:09:29;;;;;;;10.63;6.30;;;;;;;0.57;99.25;99324.94;5007654;28;20119;-66
2021/01/26 10:12:26;;;;;;;12.30;7.60;;;;;;;0.57;99.40;99322.38;5007283;28;20053;-65
2021/01/26 10:15:26;;;;;;;11.02;6.65;;;;;;;0.63;99.20;99327.22;5007487;28;20049;-67
2021/01/26 10:18:18;;;;;;;10.35;5.90;;;;;;;0.68;98.92;99325.28;5004908;28;20057;-65
2021/01/26 10:21:06;;;;;;;11.13;7.05;;;;;;;0.71;98.87;99332.00;5010732;28;20077;-65
2021/01/26 10:24:00;;;;;;;13.50;7.78;;;;;;;0.71;98.89;99329.41;5009762;28;20057;-66
2021/01/26 10:26:45;;;;;;;14.40;8.68;;;;;;;0.74;98.92;99331.88;5010058;28;20512;-66
2021/01/26 10:29:36;;;;;;;13.02;8.52;;;;;;;0.76;98.80;99337.78;5010736;28;20140;-65
2021/01/26 10:32:47;;;;;;;10.32;7.05;;;;;;;0.76;98.16;99323.19;5009046;28;20048;-66
2021/01/26 10:35:36;;;;;;;8.82;5.55;;;;;;;0.79;98.44;99309.31;5010756;28;20112;-66
2021/01/26 10:38:27;;;;;;;14.23;8.30;;;;;;;0.76;98.40;99317.22;5010096;28;20052;-66
2021/01/26 10:41:32;;;;;;;14.63;8.15;;;;;;;0.80;98.60;99316.13;5010478;28;20061;-66
2021/01/26 10:44:17;;;;;;;10.68;5.97;;;;;;;0.77;98.49;99317.13;5010868;28;20053;-66
2021/01/26 10:47:15;;;;;;;10.63;6.32;;;;;;;0.81;98.88;99309.25;5011077;28;20056;-66
2021/01/26 10:50:13;;;;;;;12.85;8.25;;;;;;;0.74;98.01;99308.72;5011830;28;20135;-65
2021/01/26 10:52:58;;;;;;;11.30;7.80;;;;;;;0.73;97.91;99309.63;5009911;28;20056;-66
2021/01/26 10:55:43;;;;;;;11.20;7.28;;;;;;;0.72;99.19;99308.78;5010823;28;20504;-65
2021/01/26 10:58:29;;;;;;;11.02;6.78;;;;;;;0.69;99.05;99306.34;5011302;28;20080;-65
2021/01/26 11:01:22;;;;;;;11.73;7.57;;;;;;;0.69;98.61;99314.06;5010785;28;20057;-66
2021/01/26 11:04:07;;;;;;;14.25;8.73;;;;;;;0.62;99.03;99306.69;5008679;28;20049;-65
2021/01/26 11:06:53;;;;;;;10.30;6.38;;;;;;;0.63;99.54;99310.97;5012188;28;20535;-66
2021/01/26 11:09:38;;;;;;;12.23;7.13;;;;;;;0.63;99.03;99324.66;5009449;28;20183;-65
2021/01/26 11:12:24;;;;;;;10.70;6.90;;;;;;;0.65;99.02;99317.69;5010993;28;20083;-66
2021/01/26 11:15:17;;;;;;;12.20;7.03;;;;;;;0.66;98.67;99321.09;5011274;28;20104;-67
2021/01/26 11:18:04;;;;;;;11.20;6.28;;;;;;;0.66;99.09;99321.09;5008887;28;20072;-65
2021/01/26 11:20:49;;;;;;;12.00;6.65;;;;;;;0.65;98.99;99316.84;5010990;28;20065;-65
2021/01/26 11:23:34;;;;;;;525.15;182.30;;;;;;;0.61;99.01;99308.44;5011163;28;20096;-64
2021/01/26 11:26:24;;;;;;;901.13;417.98;;;;;;;0.60;98.87;99313.66;5011265;28;20446;-64
2021/01/26 11:29:09;;;;;;;222.23;106.85;;;;;;;0.56;98.68;99305.25;5010630;28;20132;-67
2021/01/26 11:31:54;;;;;;;36.88;19.40;;;;;;;0.57;98.63;99309.50;5010982;28;20147;-66
2021/01/26 11:34:39;;;;;;;33.15;24.52;;;;;;;0.57;98.85;99308.66;5011275;28;20096;-67
2021/01/26 11:37:24;;;;;;;84.82;54.35;;;;;;;0.57;98.86;99303.50;5010523;28;20572;-64
2021/01/26 11:40:10;;;;;;;23.10;13.93;;;;;;;0.57;99.12;99304.34;5009986;28;20053;-65
2021/01/26 11:42:56;;;;;;;49.53;32.03;;;;;;;0.53;99.61;99307.16;5010659;28;20128;-65
2021/01/26 11:45:42;;;;;;;37.75;27.25;;;;;;;0.52;99.71;99301.13;5010771;28;20053;-65
2021/01/26 11:48:29;;;;;;;66.35;49.08;;;;;;;0.55;99.54;99306.16;5009965;28;20065;-66
2021/01/26 11:51:15;;;;;;;22.95;16.23;;;;;;;0.55;99.46;99301.00;5010443;28;20563;-66
2021/01/26 11:54:00;;;;;;;19.15;12.10;;;;;;;0.59;99.09;99294.81;5010145;28;20196;-64
2021/01/26 11:56:45;;;;;;;21.73;10.63;;;;;;;0.57;98.96;99293.22;5010430;28;20088;-66
2021/01/26 11:59:29;;;;;;;20.15;12.30;;;;;;;0.58;99.80;99293.16;5010457;28;20061;-65
2021/01/26 12:02:16;;;;;;;15.93;9.30;;;;;;;0.58;99.33;99282.03;5010078;28;20151;-65
2021/01/26 12:05:03;;;;;;;16.00;9.93;;;;;;;0.56;98.90;99294.13;5007894;28;20860;-66
2021/01/26 12:07:49;;;;;;;20.25;11.75;;;;;;;0.57;99.26;99282.91;5006594;28;20104;-66
2021/01/26 12:10:35;;;;;;;17.80;9.07;;;;;;;0.53;98.76;99286.56;5007100;28;20053;-64
2021/01/26 12:13:21;;;;;;;26.77;11.82;;;;;;;0.52;99.73;99278.00;5007838;28;20057;-65
2021/01/26 12:16:06;;;;;;;13.85;8.63;;;;;;;0.53;98.79;99277.09;5007548;28;20072;-65
2021/01/26 12:18:53;;;;;;;19.60;9.57;;;;;;;0.50;99.45;99277.25;5007541;28;20057;-65
2021/01/26 12:21:38;;;;;;;18.33;9.63;;;;;;;0.46;99.09;99281.69;5007306;28;20061;-65
2021/01/26 12:24:23;;;;;;;17.60;8.88;;;;;;;0.48;99.35;99276.50;5007256;28;20053;-66
2021/01/26 12:27:08;;;;;;;13.93;7.72;;;;;;;0.44;99.13;99264.69;5008177;28;20048;-64
2021/01/26 12:29:53;;;;;;;14.75;8.65;;;;;;;0.45;100.00;99274.88;5007619;28;20060;-64
2021/01/26 12:32:38;;;;;;;13.85;8.80;;;;;;;0.42;99.53;99269.88;5008243;28;20412;-65
2021/01/26 12:35:36;;;;;;;17.38;10.27;;;;;;;0.43;100.00;99266.41;5009953;28;20053;-65
2021/01/26 12:38:22;;;;;;;21.73;12.13;;;;;;;0.42;98.97;99266.47;5010182;28;20048;-66
2021/01/26 12:41:07;;;;;;;22.48;12.02;;;;;;;0.37;99.45;99258.13;5009043;28;20045;-64
2021/01/26 12:43:52;;;;;;;21.05;10.73;;;;;;;0.35;99.47;99259.94;5008611;28;20076;-64
2021/01/26 12:46:38;;;;;;;18.45;10.18;;;;;;;0.36;99.17;99259.88;5008315;28;20045;-64
2021/01/26 12:49:24;;;;;;;21.02;11.95;;;;;;;0.36;99.46;99257.31;5008292;28;20092;-64
2021/01/26 12:52:09;;;;;;;21.67;12.25;;;;;;;0.32;99.23;99260.91;5006911;28;20132;-66
2021/01/26 12:54:55;;;;;;;17.17;9.45;;;;;;;0.29;99.28;99257.66;5008472;28;20056;-65
2021/01/26 12:57:40;;;;;;;13.23;8.27;;;;;;;0.24;98.80;99253.56;5009246;28;20045;-65
2021/01/26 13:00:26;;;;;;;57.03;15.88;;;;;;;0.23;100.00;99251.03;5009565;28;20073;-65
2021/01/26 13:03:12;;;;;;;17.15;10.13;;;;;;;0.20;99.28;99252.03;5009423;28;20515;-64
2021/01/26 13:05:57;;;;;;;19.90;11.05;;;;;;;0.18;99.75;99251.25;5009601;28;20096;-66
2021/01/26 13:08:42;;;;;;;22.80;12.40;;;;;;;0.15;99.51;99248.84;5009081;28;20108;-64
2021/01/26 13:11:35;;;;;;;16.55;9.23;;;;;;;0.09;99.24;99245.69;5002697;28;20057;-65
2021/01/26 13:14:20;;;;;;;22.80;11.75;;;;;;;0.05;99.82;99247.59;5003977;28;20061;-65
2021/01/26 13:17:05;;;;;;;24.75;10.80;;;;;;;0.03;100.00;99246.00;5004104;28;20061;-64
2021/01/26 13:19:51;;;;;;;19.67;9.98;;;;;;;-0.04;100.00;99242.88;5004621;28;20439;-64